Bert Mooney Airport Butte US
ICAO: KBTM
IATA: BTM
Category: Medium
Scheduled Services: Yes

Elevation: 5550 ft
TransAlt. 18000 ft.

Airport Communications:
ASOS:135.175
SALT LAKE CITY CNTR:132.4
GREAT FALLS RDO:122.2
CTAF/UNICOM:123

KBTM Zoom In..

Runways:

(A) RW 12 length 5100 ft width 75 ft
---- / hdg 113

(B) RW 15 length 9001 ft width 150 ft
ILS 110.90 / hdg 151

(C) RW 30 length 5100 ft width 75 ft
---- / hdg 293

(D) RW 33 length 9001 ft width 150 ft
---- / hdg 331

Location; KBTM
Day. 05 / Time. 17.53 Zulu
* Altimeter: 30.09
* Temperature: 27° c. 80.6°f.
* Wind from: VRB° Speed 05 kn.
Dewpoint: 08° c.
Visibility: 10 Statute Miles.
Clouds: Few 11000 ft.

KBTM 051753Z AUTO VRB05KT 10SM FEW110 27/08 A3009 RMK AO2 SLP127 T02670078 10267 20083 56016

Going to: --> -->


Wind From VRB°
Speed 05 kn.

 
 
jpsmedia worldairports.se 2020   terms of use